Time;durP1;ratioP1;P1;durP2;ratioP2;P2;SDS_P1;SDS_P2;PMS_P1;PMS_P2;Temp;Humidity;BMP_temperature;BMP_pressure;BME280_temperature;BME280_humidity;BME280_pressure;Samples;Min_cycle;Max_cycle;Signal;HPM_P1;HPM_P2
2022/12/03 00:00:53;;;;;;;8.77;7.90;;;2.60;99.90;;;;;;4956228;28;20269;-89
2022/12/03 00:03:22;;;;;;;8.00;7.00;;;2.60;99.90;;;;;;4956046;29;20264;-88
2022/12/03 00:05:50;;;;;;;10.48;9.05;;;2.60;99.90;;;;;;4956562;29;20217;-88
2022/12/03 00:08:19;;;;;;;8.55;7.65;;;2.60;99.90;;;;;;4956489;28;20300;-88
2022/12/03 00:10:47;;;;;;;12.98;8.30;;;2.60;99.90;;;;;;4956560;29;20295;-88
2022/12/03 00:13:15;;;;;;;8.80;7.95;;;2.60;99.90;;;;;;4956433;29;20260;-88
2022/12/03 00:15:45;;;;;;;8.20;7.20;;;2.60;99.90;;;;;;4956426;28;20208;-88
2022/12/03 00:18:13;;;;;;;8.70;7.70;;;2.60;99.90;;;;;;4956213;29;20264;-88
2022/12/03 00:20:42;;;;;;;9.68;8.55;;;2.60;99.90;;;;;;4956198;29;20212;-88
2022/12/03 00:23:10;;;;;;;11.52;8.52;;;2.60;99.90;;;;;;4955961;29;20262;-89
2022/12/03 00:25:38;;;;;;;11.80;8.57;;;2.60;99.90;;;;;;4954629;28;20249;-89
2022/12/03 00:28:07;;;;;;;8.40;7.60;;;2.60;99.90;;;;;;4953859;28;20210;-88
2022/12/03 00:30:35;;;;;;;8.52;7.25;;;2.60;99.90;;;;;;4954440;28;20295;-88
2022/12/03 00:33:05;;;;;;;11.43;8.80;;;2.60;99.90;;;;;;4953792;28;20271;-89
2022/12/03 00:35:33;;;;;;;9.43;8.52;;;2.60;99.90;;;;;;4953582;28;20235;-89
2022/12/03 00:38:01;;;;;;;10.25;8.88;;;2.60;99.90;;;;;;4953629;28;20213;-88
2022/12/03 00:40:30;;;;;;;10.27;9.27;;;2.60;99.90;;;;;;4953991;28;20244;-89
2022/12/03 00:42:58;;;;;;;8.73;7.93;;;2.60;99.90;;;;;;4953747;28;20260;-88
2022/12/03 00:45:26;;;;;;;8.95;8.05;;;2.60;99.90;;;;;;4953810;28;20213;-88
2022/12/03 00:47:55;;;;;;;12.15;9.50;;;2.60;99.90;;;;;;4953090;28;20213;-88
2022/12/03 00:50:25;;;;;;;9.13;8.00;;;2.60;99.90;;;;;;4953676;28;20272;-88
2022/12/03 00:52:53;;;;;;;14.75;8.95;;;2.60;99.90;;;;;;4953750;28;20264;-89
2022/12/03 00:55:21;;;;;;;12.25;8.63;;;2.60;99.90;;;;;;4952898;28;20201;-88
2022/12/03 00:57:50;;;;;;;12.30;8.68;;;2.60;99.90;;;;;;4953631;28;20217;-88
2022/12/03 01:00:23;;;;;;;10.93;9.05;;;2.60;99.90;;;;;;4953308;28;20205;-88
2022/12/03 01:02:51;;;;;;;10.43;8.27;;;2.50;99.90;;;;;;4952855;28;20264;-88
2022/12/03 01:05:20;;;;;;;10.18;8.70;;;2.50;99.90;;;;;;4953529;28;20212;-88
2022/12/03 01:07:50;;;;;;;10.60;8.23;;;2.50;99.90;;;;;;4952915;28;20234;-89
2022/12/03 01:10:18;;;;;;;12.02;9.45;;;2.50;99.90;;;;;;4953446;28;20232;-88
2022/12/03 01:12:47;;;;;;;8.73;7.82;;;2.50;99.90;;;;;;4952731;28;20232;-88
2022/12/03 01:15:15;;;;;;;10.70;8.70;;;2.40;99.90;;;;;;4953099;28;20224;-88
2022/12/03 01:17:44;;;;;;;9.32;8.32;;;2.50;99.90;;;;;;4953383;28;20277;-88
2022/12/03 01:20:13;;;;;;;9.18;8.38;;;2.40;99.90;;;;;;4953116;28;20216;-88
2022/12/03 01:22:41;;;;;;;10.00;9.00;;;2.40;99.90;;;;;;4952601;28;20405;-89
2022/12/03 01:25:12;;;;;;;9.52;8.52;;;2.40;99.90;;;;;;4952873;28;20308;-88
2022/12/03 01:27:40;;;;;;;14.15;9.77;;;2.50;99.90;;;;;;4952543;28;20232;-89
2022/12/03 01:30:10;;;;;;;9.00;8.10;;;2.50;99.90;;;;;;4952836;28;20303;-88
2022/12/03 01:32:37;;;;;;;11.50;8.25;;;2.50;99.90;;;;;;4952661;28;20295;-88
2022/12/03 01:35:06;;;;;;;10.02;8.20;;;2.50;99.90;;;;;;4952908;28;20213;-88
2022/12/03 01:37:35;;;;;;;11.18;8.68;;;2.50;99.90;;;;;;4952761;28;20209;-88
2022/12/03 01:40:04;;;;;;;9.52;7.80;;;2.50;99.90;;;;;;4952748;28;20397;-88
2022/12/03 01:42:36;;;;;;;7.65;6.95;;;2.50;99.90;;;;;;4953139;28;20280;-88
2022/12/03 01:45:06;;;;;;;10.18;8.50;;;2.50;99.90;;;;;;4952902;28;20295;-88
2022/12/03 01:47:36;;;;;;;19.42;8.98;;;2.50;99.90;;;;;;4951979;28;20213;-89
2022/12/03 01:50:08;;;;;;;13.45;9.35;;;2.50;99.90;;;;;;4952715;28;20284;-88
2022/12/03 01:52:39;;;;;;;9.15;8.00;;;2.50;99.90;;;;;;4952397;28;20213;-88
2022/12/03 01:55:13;;;;;;;10.65;8.60;;;2.50;99.90;;;;;;4952420;28;20208;-88
2022/12/03 01:57:47;;;;;;;9.73;8.52;;;2.50;99.90;;;;;;4952639;28;20219;-88
2022/12/03 02:00:17;;;;;;;8.95;7.75;;;2.60;99.90;;;;;;4952810;28;20212;-88
2022/12/03 02:02:48;;;;;;;8.05;7.22;;;2.60;99.90;;;;;;4952590;28;20314;-88
2022/12/03 02:05:20;;;;;;;12.95;8.73;;;2.50;99.90;;;;;;4952778;28;20304;-88
2022/12/03 02:07:48;;;;;;;9.95;8.65;;;2.60;99.90;;;;;;4952440;28;20237;-88
2022/12/03 02:10:21;;;;;;;7.47;6.75;;;2.50;99.90;;;;;;4952269;28;20220;-88
2022/12/03 02:12:54;;;;;;;11.70;8.93;;;2.60;99.90;;;;;;4951893;28;20233;-88
2022/12/03 02:15:23;;;;;;;12.45;9.93;;;2.50;99.90;;;;;;4956311;28;20217;-88
2022/12/03 02:17:51;;;;;;;8.75;7.93;;;2.50;99.90;;;;;;4956603;28;20243;-88
2022/12/03 02:20:20;;;;;;;9.73;8.73;;;2.60;99.90;;;;;;4956429;28;20209;-88
2022/12/03 02:22:55;;;;;;;9.88;8.88;;;2.60;99.90;;;;;;4955939;28;20323;-87
2022/12/03 02:25:26;;;;;;;8.25;7.30;;;2.60;99.90;;;;;;4956367;28;20219;-87
2022/12/03 02:27:55;;;;;;;11.18;8.63;;;2.60;99.90;;;;;;4957343;28;20303;-88
2022/12/03 02:30:26;;;;;;;8.18;7.38;;;2.60;99.90;;;;;;4958438;29;20299;-88
2022/12/03 02:32:54;;;;;;;10.70;8.98;;;2.60;99.90;;;;;;4958055;29;20340;-87
2022/12/03 02:35:24;;;;;;;8.27;7.45;;;2.50;99.90;;;;;;4958227;29;20296;-87
2022/12/03 02:37:58;;;;;;;8.25;7.47;;;2.60;99.90;;;;;;4958251;29;20240;-87
2022/12/03 02:40:32;;;;;;;10.55;8.85;;;2.60;99.90;;;;;;4958383;29;20233;-87
2022/12/03 02:43:02;;;;;;;12.55;7.22;;;2.60;99.90;;;;;;4958133;29;20232;-87
2022/12/03 02:45:32;;;;;;;7.97;7.13;;;2.60;99.90;;;;;;4958320;29;20213;-88
2022/12/03 02:48:04;;;;;;;9.07;7.70;;;2.60;99.90;;;;;;4957487;29;20205;-88
2022/12/03 02:50:33;;;;;;;10.23;7.78;;;2.60;99.90;;;;;;4958056;29;20209;-88
2022/12/03 02:53:05;;;;;;;9.15;8.10;;;2.60;99.90;;;;;;4957631;28;20321;-87
2022/12/03 02:55:36;;;;;;;10.20;8.27;;;2.60;99.90;;;;;;4958194;29;20323;-87
2022/12/03 02:58:06;;;;;;;11.77;8.68;;;2.60;99.90;;;;;;4957498;29;20209;-88
2022/12/03 03:00:36;;;;;;;8.43;7.57;;;2.60;99.90;;;;;;4957878;28;20217;-88
2022/12/03 03:03:06;;;;;;;8.50;7.50;;;2.60;99.90;;;;;;4957647;29;20228;-87
2022/12/03 03:05:36;;;;;;;7.75;7.05;;;2.70;99.90;;;;;;4957652;29;20205;-88
2022/12/03 03:08:05;;;;;;;9.98;8.05;;;2.60;99.90;;;;;;4957556;29;20214;-87
2022/12/03 03:10:37;;;;;;;8.05;7.22;;;2.70;99.90;;;;;;4957676;29;20205;-87
2022/12/03 03:13:09;;;;;;;7.18;6.47;;;2.70;99.90;;;;;;4957640;29;20255;-87
2022/12/03 03:15:39;;;;;;;8.77;7.70;;;2.60;99.90;;;;;;4957645;29;20263;-87
2022/12/03 03:18:09;;;;;;;9.75;7.32;;;2.70;99.90;;;;;;4957223;29;20241;-87
2022/12/03 03:20:37;;;;;;;8.38;7.40;;;2.70;99.90;;;;;;4957539;29;20296;-88
2022/12/03 03:23:13;;;;;;;8.82;7.32;;;2.60;99.90;;;;;;4957475;29;20229;-87
2022/12/03 03:25:45;;;;;;;10.00;8.02;;;2.70;99.90;;;;;;4956585;28;20324;-87
2022/12/03 03:28:14;;;;;;;8.18;7.38;;;2.70;99.90;;;;;;4957394;29;20209;-88
2022/12/03 03:30:44;;;;;;;8.90;8.02;;;2.70;99.90;;;;;;4957294;29;20244;-87
2022/12/03 03:33:14;;;;;;;8.70;7.72;;;2.70;99.90;;;;;;4956858;29;20331;-87
2022/12/03 03:35:45;;;;;;;8.40;7.60;;;2.70;99.90;;;;;;4957386;29;20293;-88
2022/12/03 03:38:14;;;;;;;9.20;8.20;;;2.80;99.90;;;;;;4957181;29;20265;-88
2022/12/03 03:40:44;;;;;;;8.40;7.30;;;2.80;99.90;;;;;;4956874;29;20297;-88
2022/12/03 03:43:13;;;;;;;10.70;8.30;;;2.80;99.90;;;;;;4956782;29;20231;-87
2022/12/03 03:45:42;;;;;;;9.23;8.23;;;2.80;99.90;;;;;;4956711;29;20229;-87
2022/12/03 03:48:11;;;;;;;10.38;8.68;;;2.80;99.90;;;;;;4956663;29;20216;-87
2022/12/03 03:50:40;;;;;;;14.40;9.38;;;2.80;99.90;;;;;;4957014;29;20252;-88
2022/12/03 03:53:09;;;;;;;9.40;8.18;;;2.80;99.90;;;;;;4956465;29;20231;-88
2022/12/03 03:55:38;;;;;;;11.20;9.00;;;2.80;99.90;;;;;;4956787;29;20297;-87
2022/12/03 03:58:08;;;;;;;10.73;8.68;;;2.80;99.90;;;;;;4956910;29;20292;-88
2022/12/03 04:00:37;;;;;;;16.15;8.45;;;2.80;99.90;;;;;;4956753;29;20220;-87
2022/12/03 04:03:06;;;;;;;13.63;9.50;;;2.80;99.90;;;;;;4956817;29;20233;-88
2022/12/03 04:05:34;;;;;;;9.93;8.40;;;2.80;99.90;;;;;;4956172;28;20221;-87
2022/12/03 04:08:02;;;;;;;10.30;9.18;;;2.80;99.90;;;;;;4956431;29;20201;-87
2022/12/03 04:13:18;;;;;;;14.48;9.02;;;2.80;99.90;;;;;;4956783;29;20225;-87
2022/12/03 04:15:46;;;;;;;12.75;8.93;;;2.80;99.90;;;;;;4956625;29;20201;-87
2022/12/03 04:23:42;;;;;;;10.63;9.52;;;2.80;99.90;;;;;;4956012;29;20292;-87
2022/12/03 04:28:57;;;;;;;11.60;10.05;;;2.90;99.90;;;;;;4956262;29;20205;-87
2022/12/03 04:36:56;;;;;;;11.63;8.80;;;2.80;99.90;;;;;;4954919;28;20209;-87
2022/12/03 04:39:25;;;;;;;10.50;9.40;;;2.90;99.90;;;;;;4956139;29;20209;-87
2022/12/03 04:41:53;;;;;;;9.48;7.78;;;2.80;99.90;;;;;;4956104;29;20262;-87
2022/12/03 04:44:37;;;;;;;9.23;8.27;;;2.90;99.90;;;;;;4955907;29;20319;-87
2022/12/03 04:47:10;;;;;;;11.55;8.70;;;2.90;99.90;;;;;;4955691;28;20308;-88
2022/12/03 04:49:41;;;;;;;9.40;8.32;;;2.90;99.90;;;;;;4955964;29;20215;-87
2022/12/03 04:52:10;;;;;;;9.27;8.30;;;2.90;99.90;;;;;;4955832;29;20297;-87
2022/12/03 04:54:39;;;;;;;10.25;8.45;;;2.90;99.90;;;;;;4955682;29;20225;-87
2022/12/03 04:57:08;;;;;;;10.30;8.10;;;2.90;99.90;;;;;;4955725;29;20209;-87
2022/12/03 04:59:39;;;;;;;10.57;8.23;;;2.90;99.90;;;;;;4955635;29;20215;-87
2022/12/03 05:02:08;;;;;;;11.10;9.07;;;2.90;99.90;;;;;;4955808;29;20223;-87
2022/12/03 05:04:36;;;;;;;8.55;7.72;;;2.90;99.90;;;;;;4955210;29;20252;-88
2022/12/03 05:07:04;;;;;;;11.70;8.70;;;2.90;99.90;;;;;;4955332;29;20209;-87
2022/12/03 05:09:33;;;;;;;10.60;8.73;;;2.90;99.90;;;;;;4955839;29;20219;-87
2022/12/03 05:12:01;;;;;;;10.30;8.15;;;2.90;99.90;;;;;;4955489;29;20272;-88
2022/12/03 05:14:30;;;;;;;11.10;9.07;;;2.90;99.90;;;;;;4955451;29;20307;-87
2022/12/03 05:17:00;;;;;;;12.05;10.15;;;2.90;99.90;;;;;;4954960;29;20233;-88
2022/12/03 05:22:11;;;;;;;12.60;8.82;;;2.90;99.90;;;;;;4955138;29;20209;-88
2022/12/03 05:24:39;;;;;;;10.68;9.27;;;2.90;99.90;;;;;;4954948;29;20252;-88
2022/12/03 05:27:08;;;;;;;9.63;8.65;;;2.90;99.90;;;;;;4954963;29;20209;-88
2022/12/03 05:29:36;;;;;;;11.98;10.10;;;2.90;99.90;;;;;;4955595;29;20236;-88
2022/12/03 05:32:06;;;;;;;10.30;9.20;;;2.90;99.90;;;;;;4955321;28;20296;-88
2022/12/03 05:34:34;;;;;;;13.35;9.48;;;2.80;99.90;;;;;;4954878;29;20252;-88
2022/12/03 05:37:03;;;;;;;11.82;8.63;;;2.80;99.90;;;;;;4954642;29;20213;-88
2022/12/03 05:39:31;;;;;;;11.80;10.10;;;2.80;99.90;;;;;;4955236;29;20299;-88
2022/12/03 05:44:45;;;;;;;10.73;9.63;;;2.80;99.90;;;;;;4955211;28;20271;-88
2022/12/03 05:47:14;;;;;;;13.25;9.70;;;2.80;99.90;;;;;;4954132;28;20209;-88
2022/12/03 05:49:43;;;;;;;12.95;10.75;;;2.80;99.90;;;;;;4954994;29;20205;-88
2022/12/03 05:52:11;;;;;;;19.80;11.07;;;2.90;99.90;;;;;;4954869;28;20280;-88
2022/12/03 05:54:39;;;;;;;11.45;10.13;;;2.90;99.90;;;;;;4954806;28;20317;-88
2022/12/03 05:57:08;;;;;;;12.65;10.05;;;2.90;99.90;;;;;;4954283;28;20296;-87
2022/12/03 05:59:36;;;;;;;11.48;9.55;;;2.90;99.90;;;;;;4954981;28;20205;-88
2022/12/03 06:02:04;;;;;;;12.35;10.65;;;2.90;99.90;;;;;;4954934;29;20201;-88
2022/12/03 06:04:35;;;;;;;13.13;9.30;;;2.90;99.90;;;;;;4954618;28;20289;-87
2022/12/03 06:07:03;;;;;;;14.80;10.23;;;2.90;99.90;;;;;;4954330;29;20232;-88
2022/12/03 06:09:36;;;;;;;10.55;9.45;;;2.90;99.90;;;;;;4954593;28;20265;-87
2022/12/03 06:12:05;;;;;;;21.05;12.45;;;2.90;99.90;;;;;;4954440;29;20245;-87
2022/12/03 06:14:34;;;;;;;12.52;10.60;;;2.90;99.90;;;;;;4954720;28;20225;-88
2022/12/03 06:17:03;;;;;;;15.18;10.27;;;2.90;99.90;;;;;;4954844;28;20237;-87
2022/12/03 06:19:33;;;;;;;17.25;12.27;;;3.00;99.90;;;;;;4954568;28;20241;-87
2022/12/03 06:22:03;;;;;;;17.73;12.77;;;3.00;99.90;;;;;;4954500;28;20247;-87
2022/12/03 06:24:31;;;;;;;12.60;10.52;;;3.00;99.90;;;;;;4954379;28;20315;-87
2022/12/03 06:26:59;;;;;;;13.85;11.63;;;3.00;99.90;;;;;;4954121;28;20275;-87
2022/12/03 06:29:27;;;;;;;13.43;10.82;;;3.00;99.90;;;;;;4955294;28;20300;-87
2022/12/03 06:31:56;;;;;;;13.13;10.50;;;3.00;99.90;;;;;;4954624;28;20219;-88
2022/12/03 06:34:24;;;;;;;14.38;11.50;;;3.00;99.90;;;;;;4954255;28;20320;-91
2022/12/03 06:36:55;;;;;;;12.82;11.52;;;3.00;99.90;;;;;;4954195;28;20209;-92
2022/12/03 06:39:25;;;;;;;11.20;9.93;;;3.00;99.90;;;;;;4954488;28;20219;-92
2022/12/03 06:41:53;;;;;;;10.85;9.60;;;3.00;99.90;;;;;;4954337;29;20272;-91
2022/12/03 06:44:22;;;;;;;10.68;9.27;;;3.00;99.90;;;;;;4954309;29;20327;-91
2022/12/03 06:46:50;;;;;;;11.20;9.63;;;3.00;99.90;;;;;;4953646;29;20225;-91
2022/12/03 06:49:19;;;;;;;14.02;11.13;;;3.00;99.90;;;;;;4964405;29;20206;-92
2022/12/03 06:51:47;;;;;;;14.43;11.70;;;3.00;99.90;;;;;;4955794;28;20292;-91
2022/12/03 06:54:15;;;;;;;26.58;10.50;;;3.10;99.90;;;;;;4954566;28;20313;-91
2022/12/03 06:56:46;;;;;;;15.18;12.35;;;3.10;99.90;;;;;;4954334;28;20245;-91
2022/12/03 06:59:14;;;;;;;16.02;12.23;;;3.10;99.90;;;;;;4954267;28;20277;-91
2022/12/03 07:01:43;;;;;;;13.38;11.13;;;3.10;99.90;;;;;;4958266;28;20239;-92
2022/12/03 07:04:11;;;;;;;15.68;12.43;;;3.00;99.90;;;;;;4957895;28;20233;-90
2022/12/03 07:06:39;;;;;;;13.30;10.93;;;3.10;99.90;;;;;;4957580;28;20225;-90
2022/12/03 07:09:08;;;;;;;17.45;12.07;;;3.00;99.90;;;;;;4958307;28;20205;-90
2022/12/03 07:11:39;;;;;;;19.55;12.98;;;3.00;99.90;;;;;;4957979;28;20273;-91
2022/12/03 07:14:11;;;;;;;17.60;13.75;;;3.10;99.90;;;;;;4957640;28;20284;-91
2022/12/03 07:16:41;;;;;;;13.68;12.07;;;3.10;99.90;;;;;;4957904;28;20213;-91
2022/12/03 07:19:11;;;;;;;18.92;14.38;;;3.10;99.90;;;;;;4957658;28;20273;-91
2022/12/03 07:21:39;;;;;;;19.85;13.18;;;3.10;99.90;;;;;;4957877;28;20219;-90
2022/12/03 07:24:07;;;;;;;16.45;12.73;;;3.00;99.90;;;;;;4957483;29;20316;-91
2022/12/03 07:26:36;;;;;;;20.23;13.07;;;3.10;99.90;;;;;;4957280;28;20272;-91
2022/12/03 07:29:04;;;;;;;20.35;13.68;;;3.00;99.90;;;;;;4957322;28;20209;-90
2022/12/03 07:31:34;;;;;;;16.88;13.02;;;3.00;99.90;;;;;;4957511;28;20243;-91
2022/12/03 07:34:02;;;;;;;13.90;11.73;;;3.00;99.90;;;;;;4957126;28;20251;-91
2022/12/03 07:36:31;;;;;;;17.17;13.55;;;3.00;99.90;;;;;;4957753;28;20205;-91
2022/12/03 07:38:59;;;;;;;18.13;13.23;;;3.10;99.90;;;;;;4957161;28;20233;-91
2022/12/03 07:41:27;;;;;;;19.30;13.98;;;3.10;99.90;;;;;;4957504;28;20240;-91
2022/12/03 07:43:56;;;;;;;15.27;12.25;;;3.00;99.90;;;;;;4957157;28;20229;-91
2022/12/03 07:46:24;;;;;;;16.63;13.10;;;3.00;99.90;;;;;;4957149;28;20221;-90
2022/12/03 07:48:54;;;;;;;14.50;11.93;;;3.10;99.90;;;;;;4957269;28;20223;-92
2022/12/03 07:51:23;;;;;;;15.05;13.48;;;3.10;99.90;;;;;;4956939;28;20240;-90
2022/12/03 07:53:59;;;;;;;15.75;13.43;;;3.10;99.90;;;;;;4956783;28;20236;-91
2022/12/03 07:56:27;;;;;;;17.80;12.63;;;3.10;99.90;;;;;;4956914;28;20292;-91
2022/12/03 07:58:55;;;;;;;14.45;12.77;;;3.10;99.90;;;;;;4956562;28;20297;-91
2022/12/03 08:01:24;;;;;;;15.02;13.43;;;3.10;99.90;;;;;;4957330;28;20241;-91
2022/12/03 08:03:53;;;;;;;16.27;13.25;;;3.10;99.90;;;;;;4957062;29;20233;-91
2022/12/03 08:06:22;;;;;;;14.98;12.90;;;3.10;99.90;;;;;;4956535;28;20225;-91
2022/12/03 08:08:50;;;;;;;16.00;10.65;;;3.10;99.90;;;;;;4956551;28;20213;-91
2022/12/03 08:11:18;;;;;;;15.57;12.57;;;3.10;99.90;;;;;;4956691;28;20209;-90
2022/12/03 08:13:47;;;;;;;13.85;12.35;;;3.10;99.90;;;;;;4956359;28;20313;-90
2022/12/03 08:16:19;;;;;;;20.10;14.48;;;3.10;99.90;;;;;;4957096;28;20247;-90
2022/12/03 08:18:49;;;;;;;22.02;14.75;;;3.20;99.90;;;;;;4956445;29;20213;-90
2022/12/03 08:21:21;;;;;;;17.92;14.55;;;3.20;99.90;;;;;;4956532;28;20212;-90
2022/12/03 08:23:49;;;;;;;20.52;14.65;;;3.30;99.90;;;;;;4955937;28;20276;-90
2022/12/03 08:26:23;;;;;;;21.38;14.10;;;3.20;99.90;;;;;;4956210;28;20243;-90
2022/12/03 08:28:52;;;;;;;18.00;16.10;;;3.20;99.90;;;;;;4956417;28;20212;-91
2022/12/03 08:31:22;;;;;;;16.50;13.80;;;3.20;99.90;;;;;;4956368;28;20304;-91
2022/12/03 08:34:13;;;;;;;19.95;15.57;;;3.20;99.90;;;;;;4956224;28;20236;-90
2022/12/03 08:36:43;;;;;;;16.17;13.18;;;3.20;99.90;;;;;;4956043;28;20260;-91
2022/12/03 08:39:27;;;;;;;21.88;14.93;;;3.30;99.90;;;;;;4956390;28;20217;-90
2022/12/03 08:44:44;;;;;;;20.48;15.73;;;3.30;99.90;;;;;;4958112;28;20328;-90
2022/12/03 08:47:18;;;;;;;17.85;15.63;;;3.30;99.90;;;;;;4957501;28;20221;-92
2022/12/03 08:49:53;;;;;;;19.55;16.52;;;3.30;99.90;;;;;;4956232;28;20209;-90
2022/12/03 08:52:30;;;;;;;25.45;16.63;;;3.40;99.90;;;;;;4956203;28;20219;-89
2022/12/03 08:54:58;;;;;;;22.25;16.75;;;3.40;99.90;;;;;;4956045;29;20212;-91
2022/12/03 08:57:29;;;;;;;17.15;15.35;;;3.40;99.90;;;;;;4955631;28;20209;-91
2022/12/03 09:00:00;;;;;;;19.05;15.27;;;3.30;99.90;;;;;;4956073;28;20209;-90
2022/12/03 09:02:33;;;;;;;18.77;15.25;;;3.30;99.90;;;;;;4955662;28;20221;-91
2022/12/03 09:05:13;;;;;;;20.13;15.65;;;3.30;99.90;;;;;;4955681;29;20287;-90
2022/12/03 09:07:43;;;;;;;15.32;13.65;;;3.40;99.90;;;;;;4955188;28;20216;-90
2022/12/03 09:10:11;;;;;;;18.42;15.65;;;3.40;99.90;;;;;;4955974;28;20205;-90
2022/12/03 09:12:40;;;;;;;21.25;15.43;;;3.40;99.90;;;;;;4955485;28;20216;-90
2022/12/03 09:15:09;;;;;;;26.85;15.85;;;3.40;99.90;;;;;;4955646;28;20209;-90
2022/12/03 09:17:37;;;;;;;17.25;15.05;;;3.50;99.90;;;;;;4955278;28;20205;-90
2022/12/03 09:20:07;;;;;;;17.98;15.40;;;3.50;99.90;;;;;;4955341;28;20309;-91
2022/12/03 09:22:35;;;;;;;17.92;14.38;;;3.50;99.90;;;;;;4955294;28;20209;-90
2022/12/03 09:25:06;;;;;;;20.05;16.10;;;3.50;99.90;;;;;;4955412;28;20215;-91
2022/12/03 09:27:34;;;;;;;17.10;15.32;;;3.60;99.90;;;;;;4954998;28;20231;-91
2022/12/03 09:30:03;;;;;;;23.30;15.80;;;3.60;99.90;;;;;;4955213;28;20299;-91
2022/12/03 09:32:31;;;;;;;19.90;16.33;;;3.60;99.90;;;;;;4955399;28;20273;-90
2022/12/03 09:35:00;;;;;;;21.17;15.52;;;3.60;99.90;;;;;;4955523;28;20216;-91
2022/12/03 09:37:28;;;;;;;17.50;14.60;;;3.60;99.90;;;;;;4955183;28;20213;-91
2022/12/03 09:39:56;;;;;;;17.00;14.73;;;3.70;99.90;;;;;;4954900;28;20236;-90
2022/12/03 09:42:27;;;;;;;16.85;14.88;;;3.70;99.90;;;;;;4955360;28;20247;-90
2022/12/03 09:44:55;;;;;;;14.85;13.27;;;3.70;99.90;;;;;;4955046;28;20221;-90
2022/12/03 09:47:24;;;;;;;16.48;13.95;;;3.70;99.90;;;;;;4954950;28;20292;-90
2022/12/03 09:49:52;;;;;;;16.80;14.57;;;3.80;99.90;;;;;;4955126;28;20213;-91
2022/12/03 09:52:25;;;;;;;15.32;13.75;;;3.80;99.90;;;;;;4954999;28;20205;-90
2022/12/03 09:54:54;;;;;;;17.65;14.77;;;3.80;99.90;;;;;;4954962;28;20209;-91
2022/12/03 09:57:23;;;;;;;16.08;14.38;;;3.90;99.90;;;;;;4954464;29;20292;-90
2022/12/03 09:59:53;;;;;;;15.95;13.95;;;3.90;99.90;;;;;;4954870;28;20205;-91
2022/12/03 10:02:25;;;;;;;16.92;13.57;;;3.90;99.90;;;;;;4955017;28;20201;-92
2022/12/03 10:04:54;;;;;;;16.88;13.90;;;3.90;99.90;;;;;;4955071;28;20209;-90
2022/12/03 10:07:23;;;;;;;19.77;14.15;;;3.90;99.90;;;;;;4954439;28;20227;-89
2022/12/03 10:09:51;;;;;;;16.27;14.05;;;3.90;99.90;;;;;;4954621;28;20209;-92
2022/12/03 10:12:24;;;;;;;17.20;15.43;;;3.90;99.90;;;;;;4954733;28;20235;-90
2022/12/03 10:14:54;;;;;;;19.67;14.60;;;4.00;99.90;;;;;;4955087;28;20248;-90
2022/12/03 10:17:22;;;;;;;17.52;14.85;;;4.00;99.90;;;;;;4954460;28;20213;-90
2022/12/03 10:19:51;;;;;;;15.65;14.07;;;4.10;99.90;;;;;;4954765;28;20205;-89
2022/12/03 10:22:19;;;;;;;15.70;13.95;;;4.10;99.90;;;;;;4954605;28;20208;-90
2022/12/03 10:25:06;;;;;;;21.85;14.95;;;4.10;99.90;;;;;;4954633;28;20324;-90
2022/12/03 10:27:34;;;;;;;16.38;13.85;;;4.20;99.90;;;;;;4954550;28;20249;-90
2022/12/03 10:30:15;;;;;;;18.08;14.25;;;4.20;99.90;;;;;;4954217;28;20213;-91
2022/12/03 10:32:45;;;;;;;18.38;14.02;;;4.30;99.90;;;;;;4954228;28;20215;-90
2022/12/03 10:35:14;;;;;;;18.05;14.52;;;4.30;99.90;;;;;;4956487;28;20276;-90
2022/12/03 10:38:00;;;;;;;15.80;13.95;;;4.30;99.90;;;;;;4958438;28;20209;-90
2022/12/03 10:40:30;;;;;;;16.92;13.68;;;4.40;99.90;;;;;;4958662;28;20300;-91
2022/12/03 10:43:14;;;;;;;18.90;13.57;;;4.40;99.90;;;;;;4958234;28;20236;-90
2022/12/03 10:45:45;;;;;;;14.93;13.30;;;4.50;99.90;;;;;;4958289;28;20295;-90
2022/12/03 10:48:16;;;;;;;22.30;14.20;;;4.50;99.90;;;;;;4957654;28;20221;-91
2022/12/03 10:50:50;;;;;;;19.05;13.68;;;4.50;99.90;;;;;;4957939;28;20209;-90
2022/12/03 10:53:20;;;;;;;15.75;13.85;;;4.60;99.90;;;;;;4958389;28;20224;-90
2022/12/03 10:55:51;;;;;;;20.13;14.32;;;4.70;99.90;;;;;;4958416;28;20217;-91
2022/12/03 10:58:24;;;;;;;15.90;14.27;;;4.60;99.90;;;;;;4958105;28;20240;-91
2022/12/03 11:00:56;;;;;;;15.40;13.90;;;4.60;99.90;;;;;;4958094;28;20219;-91
2022/12/03 11:03:26;;;;;;;14.93;13.38;;;4.60;99.90;;;;;;4958060;28;20268;-91
2022/12/03 11:05:56;;;;;;;20.75;14.68;;;4.50;99.90;;;;;;4958276;28;20228;-90
2022/12/03 11:08:26;;;;;;;19.23;12.88;;;4.50;99.90;;;;;;4957974;29;20235;-90
2022/12/03 11:11:00;;;;;;;23.13;15.65;;;4.50;99.90;;;;;;4957660;28;20239;-91
2022/12/03 11:13:45;;;;;;;21.85;16.00;;;4.50;99.90;;;;;;4957718;28;20344;-92
2022/12/03 11:17:08;;;;;;;15.50;13.93;;;4.50;99.90;;;;;;4957069;29;20299;-91
2022/12/03 11:19:50;;;;;;;24.75;14.75;;;4.40;99.90;;;;;;4957722;28;20208;-91
2022/12/03 11:22:40;;;;;;;19.45;16.08;;;4.40;99.90;;;;;;4957869;28;20215;-90
2022/12/03 11:25:44;;;;;;;16.35;14.65;;;4.30;99.90;;;;;;4957700;28;20209;-90
2022/12/03 11:28:33;;;;;;;22.20;17.27;;;4.30;99.90;;;;;;4957233;29;20228;-90
2022/12/03 11:31:07;;;;;;;20.20;15.10;;;4.30;99.90;;;;;;4957381;29;20240;-90
2022/12/03 11:33:39;;;;;;;24.98;18.02;;;4.30;99.90;;;;;;4957742;29;20236;-90
2022/12/03 11:36:14;;;;;;;24.42;18.40;;;4.20;99.90;;;;;;4957460;28;20297;-90
2022/12/03 11:38:51;;;;;;;26.98;19.08;;;4.20;99.90;;;;;;4957451;28;20209;-91
2022/12/03 11:41:24;;;;;;;24.05;19.42;;;4.20;99.90;;;;;;4957437;28;20220;-90
2022/12/03 11:44:30;;;;;;;22.42;18.67;;;4.20;99.90;;;;;;4958008;28;20293;-91
2022/12/03 11:47:11;;;;;;;23.20;16.70;;;4.20;99.90;;;;;;4955140;28;20209;-90
2022/12/03 11:49:47;;;;;;;23.10;18.92;;;4.20;99.90;;;;;;4957055;28;20316;-90
2022/12/03 11:52:30;;;;;;;24.73;18.30;;;4.10;99.90;;;;;;4957366;28;20295;-91
2022/12/03 11:55:04;;;;;;;27.08;19.42;;;4.10;99.90;;;;;;4956831;28;20316;-90
2022/12/03 11:57:38;;;;;;;24.17;17.63;;;4.10;99.90;;;;;;4956705;28;20208;-91
2022/12/03 12:00:19;;;;;;;22.83;18.75;;;4.10;99.90;;;;;;4957337;28;20217;-90
2022/12/03 12:02:48;;;;;;;21.48;16.83;;;4.10;99.90;;;;;;4956890;28;20229;-90
2022/12/03 12:05:22;;;;;;;27.75;16.73;;;4.10;99.90;;;;;;4956703;28;20246;-90
2022/12/03 12:07:51;;;;;;;27.52;21.30;;;4.10;99.90;;;;;;4956174;28;20268;-90
2022/12/03 12:10:39;;;;;;;28.13;19.50;;;4.10;99.90;;;;;;4958521;28;20284;-90
2022/12/03 12:13:27;;;;;;;20.67;17.42;;;4.20;99.90;;;;;;4959569;29;20233;-91
2022/12/03 12:15:56;;;;;;;27.05;18.83;;;4.10;99.90;;;;;;4959430;28;20297;-90
2022/12/03 12:18:38;;;;;;;30.73;20.83;;;4.20;99.90;;;;;;4959119;28;20201;-92
2022/12/03 12:21:46;;;;;;;23.83;18.85;;;4.10;99.90;;;;;;4956925;28;20241;-90
2022/12/03 12:24:34;;;;;;;21.58;16.85;;;4.10;99.90;;;;;;4956253;29;20233;-91
2022/12/03 12:27:05;;;;;;;22.20;16.42;;;4.10;99.90;;;;;;4956552;28;20228;-91
2022/12/03 12:29:34;;;;;;;21.92;18.60;;;4.10;99.90;;;;;;4955894;28;20229;-92
2022/12/03 12:32:12;;;;;;;24.42;19.80;;;4.00;99.90;;;;;;4956137;28;20234;-91
2022/12/03 12:34:41;;;;;;;23.35;18.73;;;4.10;99.90;;;;;;4956017;28;20256;-92
2022/12/03 12:37:14;;;;;;;27.40;20.15;;;4.10;99.90;;;;;;4955891;28;20305;-91
2022/12/03 12:39:42;;;;;;;23.88;18.15;;;4.10;99.90;;;;;;4956387;29;20237;-93
2022/12/03 12:42:28;;;;;;;24.73;18.52;;;4.10;99.90;;;;;;4955972;29;20209;-91
2022/12/03 12:45:01;;;;;;;26.20;20.27;;;4.00;99.90;;;;;;4955405;28;20209;-91
2022/12/03 12:47:31;;;;;;;25.73;19.67;;;4.00;99.90;;;;;;4955302;28;20273;-91
2022/12/03 12:49:59;;;;;;;25.40;20.13;;;4.00;99.90;;;;;;4955552;28;20225;-91
2022/12/03 12:52:29;;;;;;;26.02;19.83;;;4.10;99.90;;;;;;4956035;28;20221;-91
2022/12/03 12:54:58;;;;;;;33.28;20.10;;;4.00;99.90;;;;;;4955635;28;20209;-90
2022/12/03 12:57:34;;;;;;;26.25;20.45;;;4.10;99.90;;;;;;4955007;28;20212;-90
2022/12/03 13:00:04;;;;;;;21.73;18.67;;;4.10;99.90;;;;;;4955607;28;20216;-92
2022/12/03 13:02:45;;;;;;;22.58;18.20;;;4.10;99.90;;;;;;4955404;28;20213;-91
2022/12/03 13:05:14;;;;;;;22.83;20.00;;;4.10;99.90;;;;;;4955584;28;20208;-91
2022/12/03 13:07:44;;;;;;;27.27;20.65;;;4.10;99.90;;;;;;4955414;28;20215;-91
2022/12/03 13:10:36;;;;;;;22.45;16.88;;;4.10;99.90;;;;;;4955324;28;20225;-92
2022/12/03 13:13:25;;;;;;;26.17;19.80;;;4.00;99.90;;;;;;4955309;28;20252;-91
2022/12/03 13:16:00;;;;;;;27.67;19.23;;;4.00;99.90;;;;;;4955233;28;20209;-92
2022/12/03 13:18:39;;;;;;;22.35;17.50;;;4.10;99.90;;;;;;4954853;28;20444;-91
2022/12/03 13:21:19;;;;;;;26.52;18.15;;;4.00;99.90;;;;;;4955559;28;20213;-90
2022/12/03 13:23:50;;;;;;;34.28;20.48;;;4.00;99.90;;;;;;4955153;28;20275;-91
2022/12/03 13:26:25;;;;;;;26.83;20.70;;;4.10;99.90;;;;;;4954942;28;20227;-91
2022/12/03 13:29:14;;;;;;;26.58;20.85;;;4.10;99.90;;;;;;4954976;28;20220;-90